Time;durP1;ratioP1;P1;durP2;ratioP2;P2;SDS_P1;SDS_P2;PMS_P1;PMS_P2;Temp;Humidity;BMP_temperature;BMP_pressure;BME280_temperature;BME280_humidity;BME280_pressure;Samples;Min_cycle;Max_cycle;Signal;HPM_P1;HPM_P2
2023/09/09 00:02:12;;;;;;;22.48;19.58;;;;;;;;;;5026490;28;20044;-76
2023/09/09 00:04:39;;;;;;;26.55;19.67;;;;;;;;;;5015008;28;20041;-76
2023/09/09 00:07:06;;;;;;;22.70;19.90;;;;;;;;;;5011914;28;20072;-76
2023/09/09 00:09:32;;;;;;;22.30;18.55;;;;;;;;;;5033561;28;20048;-76
2023/09/09 00:11:58;;;;;;;24.05;20.63;;;;;;;;;;5043013;28;20094;-76
2023/09/09 00:14:25;;;;;;;23.65;20.48;;;;;;;;;;5043822;28;20742;-76
2023/09/09 00:16:52;;;;;;;22.25;18.95;;;;;;;;;;5043656;28;20058;-76
2023/09/09 00:19:21;;;;;;;21.33;18.60;;;;;;;;;;5027318;28;20496;-76
2023/09/09 00:21:47;;;;;;;24.08;19.35;;;;;;;;;;5022892;28;20266;-76
2023/09/09 00:24:13;;;;;;;21.63;19.33;;;;;;;;;;5044266;28;20052;-76
2023/09/09 00:26:39;;;;;;;26.45;18.45;;;;;;;;;;5042487;28;20199;-77
2023/09/09 00:29:05;;;;;;;21.60;18.60;;;;;;;;;;5043434;28;20446;-77
2023/09/09 00:31:31;;;;;;;20.10;18.00;;;;;;;;;;5023681;28;20148;-77
2023/09/09 00:33:57;;;;;;;20.88;18.65;;;;;;;;;;5039257;28;20087;-76
2023/09/09 00:36:23;;;;;;;20.52;18.23;;;;;;;;;;5037650;28;20055;-76
2023/09/09 00:38:49;;;;;;;22.60;19.15;;;;;;;;;;5038050;28;20764;-76
2023/09/09 00:41:17;;;;;;;23.92;18.65;;;;;;;;;;5037142;28;20072;-76
2023/09/09 00:43:44;;;;;;;23.27;19.48;;;;;;;;;;5038480;28;20501;-75
2023/09/09 00:46:11;;;;;;;25.00;18.55;;;;;;;;;;5039098;28;20043;-76
2023/09/09 00:48:37;;;;;;;24.85;19.13;;;;;;;;;;5016211;28;20550;-76
2023/09/09 00:51:05;;;;;;;22.27;19.55;;;;;;;;;;5020690;28;20045;-76
2023/09/09 00:53:32;;;;;;;23.90;21.42;;;;;;;;;;5035158;28;20041;-76
2023/09/09 00:56:01;;;;;;;24.80;22.23;;;;;;;;;;5036305;28;22075;-76
2023/09/09 00:58:30;;;;;;;26.98;23.25;;;;;;;;;;5037282;28;20048;-76
2023/09/09 01:00:57;;;;;;;25.02;22.30;;;;;;;;;;5019291;28;20127;-76
2023/09/09 01:03:23;;;;;;;26.40;23.52;;;;;;;;;;5016881;28;20041;-76
2023/09/09 01:05:50;;;;;;;27.92;23.02;;;;;;;;;;5019921;28;20049;-76
2023/09/09 01:08:29;;;;;;;28.33;24.17;;;;;;;;;;5016431;28;20094;-75
2023/09/09 01:10:55;;;;;;;26.42;23.42;;;;;;;;;;5037504;28;20033;-76
2023/09/09 01:13:21;;;;;;;29.73;24.88;;;;;;;;;;5036202;28;20964;-76
2023/09/09 01:15:47;;;;;;;27.13;24.10;;;;;;;;;;5035972;28;20048;-76
2023/09/09 01:18:14;;;;;;;26.98;23.40;;;;;;;;;;5036655;28;20451;-76
2023/09/09 01:20:43;;;;;;;26.77;23.92;;;;;;;;;;5037438;28;20052;-76
2023/09/09 01:23:09;;;;;;;27.50;24.73;;;;;;;;;;5017011;28;20137;-76
2023/09/09 01:25:35;;;;;;;28.80;24.77;;;;;;;;;;5017358;28;20048;-76
2023/09/09 01:28:01;;;;;;;29.52;25.35;;;;;;;;;;5019298;28;20041;-75
2023/09/09 01:30:27;;;;;;;30.48;26.08;;;;;;;;;;5037712;28;20044;-75
2023/09/09 01:32:53;;;;;;;33.10;26.90;;;;;;;;;;5016932;28;20101;-76
2023/09/09 01:35:19;;;;;;;29.88;25.48;;;;;;;;;;5006806;28;20044;-76
2023/09/09 01:37:45;;;;;;;28.83;25.80;;;;;;;;;;5018430;28;20045;-76
2023/09/09 01:40:12;;;;;;;29.20;26.08;;;;;;;;;;5014703;28;20071;-74
2023/09/09 01:42:40;;;;;;;28.05;25.23;;;;;;;;;;5034777;28;20585;-74
2023/09/09 01:45:06;;;;;;;29.55;24.83;;;;;;;;;;5037397;28;20166;-76
2023/09/09 01:47:32;;;;;;;29.23;26.10;;;;;;;;;;5036026;28;20524;-76
2023/09/09 01:49:58;;;;;;;31.23;25.50;;;;;;;;;;5025096;28;20045;-76
2023/09/09 01:52:25;;;;;;;28.98;25.88;;;;;;;;;;5036191;28;20045;-76
2023/09/09 01:54:51;;;;;;;29.65;26.30;;;;;;;;;;5019879;28;20048;-76
2023/09/09 01:57:19;;;;;;;33.83;27.10;;;;;;;;;;5020679;28;20044;-76
2023/09/09 01:59:45;;;;;;;31.58;27.58;;;;;;;;;;5038854;28;20130;-76
2023/09/09 02:02:15;;;;;;;30.13;26.90;;;;;;;;;;5021124;28;20067;-76
2023/09/09 02:04:42;;;;;;;30.48;26.92;;;;;;;;;;5021242;28;20055;-76
2023/09/09 02:07:08;;;;;;;31.00;27.33;;;;;;;;;;5024586;28;20055;-76
2023/09/09 02:09:35;;;;;;;31.10;27.17;;;;;;;;;;5023598;28;20049;-76
2023/09/09 02:12:03;;;;;;;30.90;26.25;;;;;;;;;;5007806;28;20045;-76
2023/09/09 02:14:29;;;;;;;36.20;28.10;;;;;;;;;;5006289;28;20040;-76
2023/09/09 02:16:55;;;;;;;36.88;27.80;;;;;;;;;;5023684;28;20056;-76
2023/09/09 02:19:21;;;;;;;31.55;27.13;;;;;;;;;;5044017;28;20127;-76
2023/09/09 02:21:47;;;;;;;30.95;27.70;;;;;;;;;;5039159;28;20075;-76
2023/09/09 02:24:14;;;;;;;30.30;27.33;;;;;;;;;;5022747;28;20048;-76
2023/09/09 02:26:40;;;;;;;32.80;28.83;;;;;;;;;;5023809;28;20078;-76
2023/09/09 02:29:06;;;;;;;33.65;30.13;;;;;;;;;;5029098;28;22046;-76
2023/09/09 02:31:32;;;;;;;33.05;29.00;;;;;;;;;;5021158;28;20170;-76
2023/09/09 02:33:58;;;;;;;33.78;28.48;;;;;;;;;;5038216;28;20390;-76
2023/09/09 02:36:24;;;;;;;32.85;29.30;;;;;;;;;;5035343;28;20044;-76
2023/09/09 02:38:50;;;;;;;34.30;28.67;;;;;;;;;;5019688;28;20147;-77
2023/09/09 02:41:16;;;;;;;33.20;29.63;;;;;;;;;;5037315;28;20044;-76
2023/09/09 02:43:42;;;;;;;32.85;29.30;;;;;;;;;;5037088;28;20048;-76
2023/09/09 02:46:09;;;;;;;32.45;28.95;;;;;;;;;;5037450;28;20154;-76
2023/09/09 02:48:35;;;;;;;32.92;28.90;;;;;;;;;;5016725;28;20053;-77
2023/09/09 02:51:01;;;;;;;34.65;28.88;;;;;;;;;;5034133;28;20045;-77
2023/09/09 02:53:27;;;;;;;34.67;29.25;;;;;;;;;;5019550;28;20040;-76
2023/09/09 02:55:53;;;;;;;33.42;29.10;;;;;;;;;;5037075;28;20098;-76
2023/09/09 02:58:19;;;;;;;36.33;30.17;;;;;;;;;;5036292;28;20041;-77
2023/09/09 03:00:45;;;;;;;32.38;29.00;;;;;;;;;;5020069;28;20040;-76
2023/09/09 03:03:11;;;;;;;37.55;30.58;;;;;;;;;;5038171;28;20041;-76
2023/09/09 03:05:37;;;;;;;34.55;30.95;;;;;;;;;;5039405;28;20146;-76
2023/09/09 03:08:04;;;;;;;35.17;31.30;;;;;;;;;;5016158;28;20074;-76
2023/09/09 03:10:30;;;;;;;34.83;31.15;;;;;;;;;;5016846;28;20041;-75
2023/09/09 03:12:57;;;;;;;36.50;32.47;;;;;;;;;;5018154;28;20044;-75
2023/09/09 03:15:24;;;;;;;37.03;32.75;;;;;;;;;;5036997;28;20434;-76
2023/09/09 03:17:50;;;;;;;40.22;33.17;;;;;;;;;;5018625;28;20865;-77
2023/09/09 03:20:16;;;;;;;36.60;32.78;;;;;;;;;;5018330;28;20059;-75
2023/09/09 03:22:43;;;;;;;38.30;33.05;;;;;;;;;;5036024;28;20155;-76
2023/09/09 03:25:09;;;;;;;37.72;33.55;;;;;;;;;;5016037;28;20040;-76
2023/09/09 03:27:35;;;;;;;35.97;32.17;;;;;;;;;;5035878;28;20045;-76
2023/09/09 03:30:03;;;;;;;39.67;34.95;;;;;;;;;;5012767;28;20131;-76
2023/09/09 03:32:30;;;;;;;39.80;34.33;;;;;;;;;;5022013;28;20049;-76
2023/09/09 03:34:56;;;;;;;41.65;33.35;;;;;;;;;;5038618;28;20033;-76
2023/09/09 03:37:22;;;;;;;37.05;33.05;;;;;;;;;;5016695;28;20048;-76
2023/09/09 03:39:48;;;;;;;40.83;34.50;;;;;;;;;;5015141;28;20051;-76
2023/09/09 03:42:14;;;;;;;44.40;33.25;;;;;;;;;;5036817;28;20045;-76
2023/09/09 03:44:41;;;;;;;49.55;36.08;;;;;;;;;;5020584;28;20044;-76
2023/09/09 03:47:07;;;;;;;56.35;36.88;;;;;;;;;;5021202;28;20560;-76
2023/09/09 03:49:33;;;;;;;39.63;34.55;;;;;;;;;;5037643;28;20045;-77
2023/09/09 03:51:59;;;;;;;41.33;34.83;;;;;;;;;;5018395;28;20944;-76
2023/09/09 03:54:25;;;;;;;41.03;34.53;;;;;;;;;;5035043;28;20071;-76
2023/09/09 03:56:51;;;;;;;43.92;34.65;;;;;;;;;;5019495;28;20130;-76
2023/09/09 03:59:17;;;;;;;42.72;36.17;;;;;;;;;;5021136;28;20103;-76
2023/09/09 04:01:43;;;;;;;41.17;36.13;;;;;;;;;;5030125;28;20056;-76
2023/09/09 04:04:09;;;;;;;38.65;34.58;;;;;;;;;;5000644;28;20671;-75
2023/09/09 04:06:35;;;;;;;45.70;36.00;;;;;;;;;;5039118;28;20052;-78
2023/09/09 04:09:02;;;;;;;43.60;35.78;;;;;;;;;;5019940;28;20094;-77
2023/09/09 04:11:28;;;;;;;41.85;36.17;;;;;;;;;;5019756;28;20145;-77
2023/09/09 04:13:54;;;;;;;39.15;34.97;;;;;;;;;;5019726;28;20674;-78
2023/09/09 04:16:20;;;;;;;39.92;35.67;;;;;;;;;;5038592;28;20045;-79
2023/09/09 04:18:46;;;;;;;39.88;35.55;;;;;;;;;;5019045;28;20075;-81
2023/09/09 04:21:12;;;;;;;39.25;33.50;;;;;;;;;;5039864;28;20685;-80
2023/09/09 04:23:38;;;;;;;42.40;34.65;;;;;;;;;;5039925;28;20044;-80
2023/09/09 04:26:04;;;;;;;44.38;37.92;;;;;;;;;;5007377;28;21059;-81
2023/09/09 04:28:31;;;;;;;39.45;34.80;;;;;;;;;;5044506;28;20090;-81
2023/09/09 04:30:57;;;;;;;41.53;35.22;;;;;;;;;;5014622;28;20132;-81
2023/09/09 04:33:23;;;;;;;42.00;35.80;;;;;;;;;;5022783;28;20119;-81
2023/09/09 04:35:49;;;;;;;40.75;34.80;;;;;;;;;;5039744;28;20127;-81
2023/09/09 04:38:16;;;;;;;39.97;35.15;;;;;;;;;;5023553;28;20080;-81
2023/09/09 04:40:44;;;;;;;40.83;35.55;;;;;;;;;;5005883;28;20061;-81
2023/09/09 04:43:10;;;;;;;37.38;32.53;;;;;;;;;;5039452;28;20132;-81
2023/09/09 04:45:36;;;;;;;37.97;33.92;;;;;;;;;;5005314;28;20493;-81
2023/09/09 04:48:02;;;;;;;41.88;36.45;;;;;;;;;;5039872;28;20057;-81
2023/09/09 04:50:28;;;;;;;45.03;36.17;;;;;;;;;;5022248;28;20049;-81
2023/09/09 04:52:55;;;;;;;43.63;35.13;;;;;;;;;;5040902;28;20037;-82
2023/09/09 04:55:21;;;;;;;38.58;34.47;;;;;;;;;;5022491;28;20664;-81
2023/09/09 04:57:47;;;;;;;42.05;36.17;;;;;;;;;;5009238;28;20044;-80
2023/09/09 05:00:13;;;;;;;42.33;36.95;;;;;;;;;;5025710;28;22038;-81
2023/09/09 05:02:39;;;;;;;43.95;36.92;;;;;;;;;;5038761;28;20558;-81
2023/09/09 05:05:07;;;;;;;41.25;35.95;;;;;;;;;;5021661;28;20500;-81
2023/09/09 05:07:34;;;;;;;41.70;35.80;;;;;;;;;;5027683;28;20049;-82
2023/09/09 05:10:01;;;;;;;45.25;37.10;;;;;;;;;;5023600;28;20051;-81
2023/09/09 05:12:27;;;;;;;43.63;36.58;;;;;;;;;;5022188;28;20044;-80
2023/09/09 05:14:53;;;;;;;41.30;36.90;;;;;;;;;;5022064;28;20041;-80
2023/09/09 05:17:19;;;;;;;49.08;36.33;;;;;;;;;;5021098;28;20824;-80
2023/09/09 05:19:45;;;;;;;43.30;36.47;;;;;;;;;;5040967;28;20045;-80
2023/09/09 05:22:11;;;;;;;47.10;35.72;;;;;;;;;;5022214;28;20126;-81
2023/09/09 05:24:38;;;;;;;46.83;35.97;;;;;;;;;;5023226;28;20043;-80
2023/09/09 05:27:04;;;;;;;39.83;35.42;;;;;;;;;;5021739;28;20504;-81
2023/09/09 05:29:30;;;;;;;44.00;36.83;;;;;;;;;;5025794;28;20170;-81
2023/09/09 05:31:56;;;;;;;42.63;37.35;;;;;;;;;;5026585;28;20083;-81
2023/09/09 05:34:22;;;;;;;39.55;34.65;;;;;;;;;;5040925;28;20048;-81
2023/09/09 05:36:48;;;;;;;39.90;35.60;;;;;;;;;;5039476;28;21393;-81
2023/09/09 05:39:14;;;;;;;40.38;36.00;;;;;;;;;;5021402;28;20041;-79
2023/09/09 05:41:41;;;;;;;40.97;35.72;;;;;;;;;;5022464;28;20045;-81
2023/09/09 05:44:07;;;;;;;39.42;33.33;;;;;;;;;;5039178;28;20052;-80
2023/09/09 05:46:33;;;;;;;39.72;35.30;;;;;;;;;;5022215;28;20565;-81
2023/09/09 05:48:59;;;;;;;43.03;37.15;;;;;;;;;;5021758;28;20048;-80
2023/09/09 05:51:28;;;;;;;45.63;39.75;;;;;;;;;;5030323;28;20135;-81
2023/09/09 05:53:54;;;;;;;44.17;39.08;;;;;;;;;;5039347;28;20048;-81
2023/09/09 05:56:20;;;;;;;45.67;38.22;;;;;;;;;;5039934;28;20037;-81
2023/09/09 05:58:46;;;;;;;42.38;37.55;;;;;;;;;;5040772;28;20058;-81
2023/09/09 06:01:12;;;;;;;44.78;36.85;;;;;;;;;;5040443;28;20056;-81
2023/09/09 06:03:39;;;;;;;49.63;38.80;;;;;;;;;;5040929;28;20037;-80
2023/09/09 06:06:05;;;;;;;41.45;36.92;;;;;;;;;;5023092;28;20085;-81
2023/09/09 06:08:32;;;;;;;41.90;37.25;;;;;;;;;;5021932;28;20450;-82
2023/09/09 06:10:58;;;;;;;50.22;37.72;;;;;;;;;;5036994;28;20044;-82
2023/09/09 06:13:24;;;;;;;42.25;36.55;;;;;;;;;;5020745;28;20098;-82
2023/09/09 06:15:50;;;;;;;42.63;36.60;;;;;;;;;;5039345;28;20142;-81
2023/09/09 06:18:16;;;;;;;44.53;36.22;;;;;;;;;;5020655;28;20078;-81
2023/09/09 06:20:46;;;;;;;40.75;36.05;;;;;;;;;;5018530;28;20048;-82
2023/09/09 06:23:12;;;;;;;40.35;35.95;;;;;;;;;;5005226;28;20065;-82
2023/09/09 06:25:39;;;;;;;43.70;36.42;;;;;;;;;;5002982;28;20052;-81
2023/09/09 06:28:05;;;;;;;44.70;36.33;;;;;;;;;;5021630;28;20084;-81
2023/09/09 06:30:32;;;;;;;41.92;36.70;;;;;;;;;;5022041;28;20456;-82
2023/09/09 06:32:58;;;;;;;42.33;37.13;;;;;;;;;;5020927;28;20040;-81
2023/09/09 06:35:24;;;;;;;46.63;37.70;;;;;;;;;;5022043;28;20649;-80
2023/09/09 06:37:50;;;;;;;43.60;36.50;;;;;;;;;;5019402;28;20052;-81
2023/09/09 06:40:16;;;;;;;42.45;36.05;;;;;;;;;;5002162;28;20048;-81
2023/09/09 06:42:42;;;;;;;42.67;36.78;;;;;;;;;;5017795;28;20045;-81
2023/09/09 06:45:11;;;;;;;44.97;35.65;;;;;;;;;;5039987;28;20036;-81
2023/09/09 06:47:37;;;;;;;42.08;36.28;;;;;;;;;;5022180;28;20842;-81
2023/09/09 06:50:03;;;;;;;40.50;36.08;;;;;;;;;;5023486;28;20044;-82
2023/09/09 06:52:29;;;;;;;49.65;38.40;;;;;;;;;;5022846;28;20409;-81
2023/09/09 06:54:55;;;;;;;42.05;37.30;;;;;;;;;;5020460;28;20046;-81
2023/09/09 06:57:21;;;;;;;45.90;36.95;;;;;;;;;;5004296;28;20084;-82
2023/09/09 06:59:47;;;;;;;46.92;35.70;;;;;;;;;;5021731;28;20048;-81
2023/09/09 07:02:13;;;;;;;44.95;37.03;;;;;;;;;;5020993;28;20080;-81
2023/09/09 07:04:40;;;;;;;43.88;35.15;;;;;;;;;;5010683;28;20048;-81
2023/09/09 07:07:06;;;;;;;39.72;35.25;;;;;;;;;;5036562;28;20056;-82
2023/09/09 07:09:33;;;;;;;40.90;34.78;;;;;;;;;;5017468;28;20044;-82
2023/09/09 07:11:59;;;;;;;38.78;34.50;;;;;;;;;;5020586;28;20466;-81
2023/09/09 07:14:25;;;;;;;47.70;34.40;;;;;;;;;;5019513;28;20884;-81
2023/09/09 07:16:52;;;;;;;42.47;33.22;;;;;;;;;;5037288;28;20127;-81
2023/09/09 07:19:18;;;;;;;44.38;29.75;;;;;;;;;;5019501;28;20056;-81
2023/09/09 07:21:44;;;;;;;31.52;27.35;;;;;;;;;;5038376;28;20051;-81
2023/09/09 07:24:10;;;;;;;29.40;26.20;;;;;;;;;;5000925;28;20041;-79
2023/09/09 07:26:36;;;;;;;33.63;27.48;;;;;;;;;;5017827;28;20110;-81
2023/09/09 07:29:03;;;;;;;31.98;25.45;;;;;;;;;;5019897;28;20056;-81
2023/09/09 07:31:30;;;;;;;30.08;25.10;;;;;;;;;;5022341;28;20044;-81
2023/09/09 07:33:56;;;;;;;33.75;24.98;;;;;;;;;;5021462;28;20903;-81
2023/09/09 07:36:22;;;;;;;29.90;26.70;;;;;;;;;;5016874;28;20049;-81
2023/09/09 07:38:48;;;;;;;29.60;26.45;;;;;;;;;;5001893;28;20511;-81
2023/09/09 07:41:14;;;;;;;32.13;27.02;;;;;;;;;;5017432;28;20045;-81
2023/09/09 07:43:40;;;;;;;34.83;25.85;;;;;;;;;;5037795;28;20045;-81
2023/09/09 07:46:08;;;;;;;35.30;24.60;;;;;;;;;;5019709;28;20048;-81
2023/09/09 07:48:34;;;;;;;25.75;22.95;;;;;;;;;;5016639;28;20071;-81
2023/09/09 07:51:00;;;;;;;26.15;21.20;;;;;;;;;;5017466;28;20139;-81
2023/09/09 07:53:26;;;;;;;24.38;21.80;;;;;;;;;;5015683;28;20049;-81
2023/09/09 07:55:52;;;;;;;30.50;22.23;;;;;;;;;;5014850;28;20144;-81
2023/09/09 07:58:18;;;;;;;25.45;22.85;;;;;;;;;;5021464;28;20053;-81
2023/09/09 08:00:45;;;;;;;30.35;22.83;;;;;;;;;;5000704;28;20596;-81
2023/09/09 08:03:11;;;;;;;31.52;22.67;;;;;;;;;;5019965;28;20044;-81
2023/09/09 08:05:38;;;;;;;28.48;23.63;;;;;;;;;;5021537;28;20049;-79
2023/09/09 08:08:07;;;;;;;27.15;22.75;;;;;;;;;;4999860;28;20851;-80
2023/09/09 08:10:33;;;;;;;26.48;23.05;;;;;;;;;;5020582;28;20385;-80
2023/09/09 08:13:00;;;;;;;35.15;22.92;;;;;;;;;;5019822;28;20080;-80
2023/09/09 08:15:26;;;;;;;26.10;23.35;;;;;;;;;;5007503;28;20045;-81
2023/09/09 08:17:52;;;;;;;27.23;23.90;;;;;;;;;;4997927;28;20045;-81
2023/09/09 08:20:18;;;;;;;26.52;23.42;;;;;;;;;;5018275;28;20160;-81
2023/09/09 08:22:44;;;;;;;27.35;23.52;;;;;;;;;;5016501;28;20041;-80
2023/09/09 08:25:12;;;;;;;26.48;23.38;;;;;;;;;;5022489;28;20044;-80
2023/09/09 08:27:39;;;;;;;29.00;24.17;;;;;;;;;;5004113;28;20071;-80
2023/09/09 08:30:06;;;;;;;27.08;23.40;;;;;;;;;;5022621;28;20049;-81
2023/09/09 08:32:32;;;;;;;26.90;24.00;;;;;;;;;;5020543;28;20856;-81
2023/09/09 08:34:59;;;;;;;29.98;23.25;;;;;;;;;;5023499;28;20121;-80
2023/09/09 08:37:25;;;;;;;27.23;24.30;;;;;;;;;;5024107;28;20134;-81
2023/09/09 08:39:55;;;;;;;28.77;24.02;;;;;;;;;;5006851;28;20309;-80
2023/09/09 08:42:42;;;;;;;31.30;24.05;;;;;;;;;;5021877;28;20067;-81
2023/09/09 08:45:11;;;;;;;26.85;24.15;;;;;;;;;;5022716;28;20124;-80
2023/09/09 08:47:39;;;;;;;27.20;24.35;;;;;;;;;;5023189;28;20721;-80
2023/09/09 08:50:06;;;;;;;28.13;24.15;;;;;;;;;;5020488;28;20088;-80
2023/09/09 08:52:32;;;;;;;30.75;25.00;;;;;;;;;;5021821;28;20053;-80
2023/09/09 08:54:58;;;;;;;26.10;23.40;;;;;;;;;;5004710;28;20524;-80
2023/09/09 08:57:25;;;;;;;29.85;24.67;;;;;;;;;;5027448;28;20090;-80
2023/09/09 08:59:51;;;;;;;30.15;25.00;;;;;;;;;;5020826;28;20432;-80
2023/09/09 09:02:18;;;;;;;29.95;24.67;;;;;;;;;;5021861;28;20152;-80
2023/09/09 09:04:44;;;;;;;28.63;24.60;;;;;;;;;;5023221;28;20036;-80
2023/09/09 09:07:11;;;;;;;33.92;24.92;;;;;;;;;;5021893;28;20056;-80
2023/09/09 09:09:37;;;;;;;27.00;23.95;;;;;;;;;;5019097;28;20132;-81
2023/09/09 09:12:04;;;;;;;31.65;23.88;;;;;;;;;;5021964;28;20071;-81
2023/09/09 09:14:30;;;;;;;26.33;23.05;;;;;;;;;;5014487;28;20476;-80
2023/09/09 09:16:56;;;;;;;26.75;23.67;;;;;;;;;;5006705;28;20041;-80
2023/09/09 09:19:30;;;;;;;26.88;23.85;;;;;;;;;;5021521;28;20040;-80
2023/09/09 09:21:57;;;;;;;30.02;24.65;;;;;;;;;;5020187;28;20037;-80
2023/09/09 09:24:26;;;;;;;26.67;22.70;;;;;;;;;;5022818;28;20036;-80
2023/09/09 09:26:54;;;;;;;27.73;24.27;;;;;;;;;;5019280;28;20034;-80
2023/09/09 09:29:20;;;;;;;29.15;22.95;;;;;;;;;;5020162;28;20092;-80
2023/09/09 09:31:53;;;;;;;26.05;23.27;;;;;;;;;;5023013;28;20080;-80
2023/09/09 09:34:20;;;;;;;28.23;22.75;;;;;;;;;;5022756;28;20045;-80
2023/09/09 09:36:46;;;;;;;26.52;23.35;;;;;;;;;;5019754;28;20057;-80
2023/09/09 09:39:12;;;;;;;29.48;24.38;;;;;;;;;;5022494;28;20044;-79
2023/09/09 09:41:39;;;;;;;31.27;24.95;;;;;;;;;;5019868;28;20045;-80
2023/09/09 09:44:16;;;;;;;26.75;23.95;;;;;;;;;;5022658;28;20051;-80
2023/09/09 09:46:42;;;;;;;28.23;24.90;;;;;;;;;;5021330;28;21841;-79
2023/09/09 09:49:09;;;;;;;27.55;24.70;;;;;;;;;;5029715;28;20067;-80
2023/09/09 09:51:44;;;;;;;28.95;25.45;;;;;;;;;;5020934;28;20160;-81
2023/09/09 09:54:17;;;;;;;28.50;24.65;;;;;;;;;;5021978;28;20103;-80
2023/09/09 09:56:44;;;;;;;29.10;26.10;;;;;;;;;;5003955;28;20045;-80
2023/09/09 09:59:10;;;;;;;26.85;24.10;;;;;;;;;;5019920;28;20809;-80
2023/09/09 10:01:37;;;;;;;26.60;22.67;;;;;;;;;;5020587;28;20136;-80
2023/09/09 10:04:06;;;;;;;25.73;21.02;;;;;;;;;;5021230;28;20493;-80
2023/09/09 10:06:34;;;;;;;25.55;22.77;;;;;;;;;;5022235;28;20045;-81
2023/09/09 10:09:23;;;;;;;22.95;20.65;;;;;;;;;;5019156;28;20056;-80
2023/09/09 10:11:53;;;;;;;24.02;20.23;;;;;;;;;;5018843;28;20051;-80
2023/09/09 10:14:23;;;;;;;21.88;19.67;;;;;;;;;;5020532;28;20040;-80
2023/09/09 10:16:51;;;;;;;23.33;19.48;;;;;;;;;;5021397;28;20635;-80
2023/09/09 10:19:18;;;;;;;26.67;20.35;;;;;;;;;;5022260;28;20177;-80
2023/09/09 10:21:45;;;;;;;23.88;19.73;;;;;;;;;;5020899;28;20508;-80
2023/09/09 10:24:11;;;;;;;21.13;18.52;;;;;;;;;;5004308;28;20657;-80
2023/09/09 10:26:40;;;;;;;22.98;19.80;;;;;;;;;;5021459;28;20519;-80
2023/09/09 10:29:07;;;;;;;21.20;18.92;;;;;;;;;;5023598;28;20724;-78
2023/09/09 10:31:35;;;;;;;23.27;17.48;;;;;;;;;;5006140;28;20232;-78
2023/09/09 10:34:02;;;;;;;26.75;19.65;;;;;;;;;;5020065;28;20047;-78
2023/09/09 10:36:31;;;;;;;20.85;17.92;;;;;;;;;;5020807;28;20093;-77
2023/09/09 10:38:57;;;;;;;20.23;17.98;;;;;;;;;;5020748;28;20060;-78
2023/09/09 10:41:23;;;;;;;20.58;18.45;;;;;;;;;;5018250;28;20124;-78
2023/09/09 10:43:49;;;;;;;18.02;16.13;;;;;;;;;;5019755;28;20524;-78
2023/09/09 10:46:15;;;;;;;22.40;14.18;;;;;;;;;;5018250;28;20049;-78
2023/09/09 10:48:45;;;;;;;18.48;13.95;;;;;;;;;;5017811;28;20421;-79
2023/09/09 10:51:13;;;;;;;17.90;15.88;;;;;;;;;;5040479;28;20048;-78
2023/09/09 10:53:39;;;;;;;21.17;16.13;;;;;;;;;;5039322;28;20102;-78
2023/09/09 10:56:17;;;;;;;21.10;15.95;;;;;;;;;;5040412;28;20037;-78
2023/09/09 10:58:46;;;;;;;19.48;15.40;;;;;;;;;;5021758;28;20254;-78
2023/09/09 11:01:23;;;;;;;23.00;17.13;;;;;;;;;;5035032;28;20186;-78
2023/09/09 11:03:49;;;;;;;17.60;15.25;;;;;;;;;;5018087;28;20037;-79
2023/09/09 11:06:24;;;;;;;17.17;15.57;;;;;;;;;;5021068;28;20444;-79
2023/09/09 11:08:54;;;;;;;15.52;13.95;;;;;;;;;;5019802;28;20505;-79
2023/09/09 11:11:26;;;;;;;14.88;13.27;;;;;;;;;;5022492;28;20051;-79
2023/09/09 11:13:53;;;;;;;15.23;13.17;;;;;;;;;;5022566;28;20040;-79
2023/09/09 11:16:28;;;;;;;13.88;11.90;;;;;;;;;;5039840;28;20059;-79
2023/09/09 11:18:54;;;;;;;16.27;11.68;;;;;;;;;;5020701;28;20214;-79
2023/09/09 11:21:24;;;;;;;13.57;12.18;;;;;;;;;;5039928;28;20552;-79
2023/09/09 11:23:53;;;;;;;18.70;15.20;;;;;;;;;;5022505;28;20041;-79
2023/09/09 11:26:20;;;;;;;26.30;20.15;;;;;;;;;;5004762;28;20079;-79
2023/09/09 11:28:47;;;;;;;26.65;22.73;;;;;;;;;;5028902;28;20761;-79
2023/09/09 11:31:14;;;;;;;25.50;23.00;;;;;;;;;;5022422;28;20724;-78
2023/09/09 11:33:40;;;;;;;25.40;21.70;;;;;;;;;;5039826;28;20042;-79
2023/09/09 11:36:06;;;;;;;29.50;24.40;;;;;;;;;;5020485;28;20124;-79
2023/09/09 11:38:33;;;;;;;35.13;25.05;;;;;;;;;;5021896;28;20107;-79
2023/09/09 11:40:59;;;;;;;29.15;25.23;;;;;;;;;;5039500;28;20041;-79
2023/09/09 11:43:25;;;;;;;24.73;19.23;;;;;;;;;;5028134;28;20132;-81
2023/09/09 11:45:52;;;;;;;23.60;19.48;;;;;;;;;;5007521;28;20047;-81
2023/09/09 11:48:18;;;;;;;22.52;18.52;;;;;;;;;;5002708;28;20044;-81
2023/09/09 11:50:45;;;;;;;22.42;16.13;;;;;;;;;;5039246;28;20151;-82
2023/09/09 11:53:12;;;;;;;16.85;15.05;;;;;;;;;;5006957;28;20065;-79
2023/09/09 11:55:39;;;;;;;22.60;18.20;;;;;;;;;;4985290;28;20064;-80
2023/09/09 11:58:08;;;;;;;18.45;16.55;;;;;;;;;;4980572;28;20143;-80
2023/09/09 12:00:34;;;;;;;19.80;15.40;;;;;;;;;;4994491;28;20498;-77
2023/09/09 12:03:00;;;;;;;17.85;16.05;;;;;;;;;;4994379;28;20095;-77
2023/09/09 12:05:30;;;;;;;15.25;13.82;;;;;;;;;;4994505;28;20183;-78
2023/09/09 12:07:57;;;;;;;20.58;15.35;;;;;;;;;;4994460;28;20057;-78
2023/09/09 12:10:24;;;;;;;16.33;14.73;;;;;;;;;;5011225;28;20048;-78
2023/09/09 12:12:50;;;;;;;17.30;14.40;;;;;;;;;;5011997;28;20045;-78
2023/09/09 12:15:17;;;;;;;13.45;12.07;;;;;;;;;;4993908;28;20037;-78
2023/09/09 12:17:43;;;;;;;12.40;11.05;;;;;;;;;;4994807;28;20049;-78
2023/09/09 12:20:09;;;;;;;13.85;12.32;;;;;;;;;;4973128;28;20053;-78
2023/09/09 12:22:36;;;;;;;14.27;12.77;;;;;;;;;;5009883;28;20096;-78
2023/09/09 12:25:04;;;;;;;14.60;13.18;;;;;;;;;;5035585;28;20187;-78
2023/09/09 12:27:46;;;;;;;16.77;13.82;;;;;;;;;;5040326;28;20053;-78
2023/09/09 12:30:31;;;;;;;13.52;12.23;;;;;;;;;;5039006;28;20044;-78
2023/09/09 12:33:03;;;;;;;16.85;11.88;;;;;;;;;;5022631;28;20099;-78
2023/09/09 12:35:32;;;;;;;16.23;14.13;;;;;;;;;;5019351;28;20138;-78
2023/09/09 12:37:58;;;;;;;21.38;12.82;;;;;;;;;;5022861;28;20575;-78
2023/09/09 12:40:24;;;;;;;19.30;13.07;;;;;;;;;;5022177;28;20044;-79
2023/09/09 12:42:50;;;;;;;18.55;12.60;;;;;;;;;;5026688;28;20077;-81
2023/09/09 12:45:16;;;;;;;14.52;12.88;;;;;;;;;;5025579;28;20073;-81
2023/09/09 12:47:42;;;;;;;17.38;14.35;;;;;;;;;;5042951;28;20516;-81
2023/09/09 12:50:09;;;;;;;17.73;13.50;;;;;;;;;;5009825;28;20265;-81
2023/09/09 12:52:35;;;;;;;14.25;12.73;;;;;;;;;;5020582;28;20383;-81
2023/09/09 12:55:01;;;;;;;12.90;11.60;;;;;;;;;;5020525;28;20076;-81
2023/09/09 12:57:27;;;;;;;14.40;12.48;;;;;;;;;;5022753;28;20064;-82
2023/09/09 12:59:53;;;;;;;13.75;11.68;;;;;;;;;;5022550;28;20770;-81
2023/09/09 13:02:19;;;;;;;15.43;11.27;;;;;;;;;;5027261;28;20053;-81
2023/09/09 13:04:45;;;;;;;12.85;10.73;;;;;;;;;;5021625;28;20168;-81
2023/09/09 13:07:11;;;;;;;13.63;12.02;;;;;;;;;;5021154;28;20041;-79
2023/09/09 13:09:37;;;;;;;11.95;10.48;;;;;;;;;;5019830;28;20179;-79
2023/09/09 13:12:04;;;;;;;13.70;11.23;;;;;;;;;;5020154;28;20041;-79
2023/09/09 13:14:30;;;;;;;11.27;9.88;;;;;;;;;;5021543;28;20120;-79
2023/09/09 13:16:56;;;;;;;11.63;10.52;;;;;;;;;;5020634;28;20034;-79
2023/09/09 13:19:22;;;;;;;14.65;10.00;;;;;;;;;;5018792;28;21254;-79
2023/09/09 13:21:48;;;;;;;12.10;10.35;;;;;;;;;;5023244;28;20040;-74
2023/09/09 13:24:14;;;;;;;10.23;9.32;;;;;;;;;;5021979;28;20075;-74
2023/09/09 13:26:40;;;;;;;14.95;10.52;;;;;;;;;;5016543;28;20437;-74
2023/09/09 13:29:07;;;;;;;12.18;10.80;;;;;;;;;;5016650;28;20085;-75
2023/09/09 13:31:33;;;;;;;11.18;9.98;;;;;;;;;;5022531;28;20505;-74
2023/09/09 13:33:59;;;;;;;18.10;12.27;;;;;;;;;;5020705;28;20038;-74
2023/09/09 13:36:25;;;;;;;11.63;9.55;;;;;;;;;;5021191;28;20115;-75
2023/09/09 13:38:51;;;;;;;11.35;9.75;;;;;;;;;;5022109;28;20464;-75
2023/09/09 13:41:17;;;;;;;12.80;9.60;;;;;;;;;;5023117;28;20093;-75
2023/09/09 13:43:43;;;;;;;13.07;10.95;;;;;;;;;;5021321;28;20128;-75
2023/09/09 13:46:10;;;;;;;11.23;9.68;;;;;;;;;;5021221;28;20045;-74
2023/09/09 13:48:36;;;;;;;13.48;10.55;;;;;;;;;;5021832;28;20508;-74
2023/09/09 13:51:02;;;;;;;13.60;10.82;;;;;;;;;;5035931;28;20068;-74
2023/09/09 13:53:28;;;;;;;15.93;9.57;;;;;;;;;;5023068;28;20060;-75
2023/09/09 13:55:56;;;;;;;15.15;12.00;;;;;;;;;;5041876;28;20072;-75
2023/09/09 13:58:22;;;;;;;17.33;13.45;;;;;;;;;;5041983;28;20219;-75
2023/09/09 14:00:50;;;;;;;15.93;12.40;;;;;;;;;;5023171;28;20040;-75
2023/09/09 14:03:16;;;;;;;14.77;12.85;;;;;;;;;;5037454;28;20071;-75
2023/09/09 14:05:43;;;;;;;13.48;10.75;;;;;;;;;;5018253;28;20630;-75
2023/09/09 14:08:09;;;;;;;14.38;12.68;;;;;;;;;;5038766;28;20090;-75
2023/09/09 14:10:35;;;;;;;17.27;15.10;;;;;;;;;;5023835;28;20041;-74
2023/09/09 14:13:01;;;;;;;15.50;13.77;;;;;;;;;;5023364;28;20037;-75
2023/09/09 14:15:27;;;;;;;19.05;14.15;;;;;;;;;;5017844;28;20040;-74